Time;durP1;ratioP1;P1;durP2;ratioP2;P2;SDS_P1;SDS_P2;PMS_P1;PMS_P2;Temp;Humidity;BMP_temperature;BMP_pressure;BME280_temperature;BME280_humidity;BME280_pressure;Samples;Min_cycle;Max_cycle;Signal;HPM_P1;HPM_P2
2023/01/19 00:01:09;;;;;;;;;;;;;;;16.90;71.62;99836.16;7405399;19;1029;-45
2023/01/19 00:03:41;;;;;;;;;;;;;;;16.93;71.25;99827.88;7404964;19;1771;-42
2023/01/19 00:06:10;;;;;;;;;;;;;;;16.87;71.65;99837.28;7404533;19;2061;-42
2023/01/19 00:08:38;;;;;;;;;;;;;;;16.89;71.66;99848.66;7400551;19;2103;-42
2023/01/19 00:11:06;;;;;;;;;;;;;;;16.84;71.61;99823.38;7403220;19;1829;-42
2023/01/19 00:13:35;;;;;;;;;;;;;;;16.84;71.32;99829.56;7403832;19;1967;-42
2023/01/19 00:16:03;;;;;;;;;;;;;;;16.86;71.29;99827.59;7404626;19;1244;-42
2023/01/19 00:18:31;;;;;;;;;;;;;;;16.85;71.41;99841.06;7402350;19;1876;-42
2023/01/19 00:21:02;;;;;;;;;;;;;;;16.82;71.75;99836.88;7403306;19;2315;-42
2023/01/19 00:23:30;;;;;;;;;;;;;;;16.79;71.66;99831.81;7400714;19;1640;-42
2023/01/19 00:25:59;;;;;;;;;;;;;;;16.81;71.50;99842.31;7402800;19;1720;-42
2023/01/19 00:28:27;;;;;;;;;;;;;;;16.81;71.58;99850.31;7404137;19;1026;-42
2023/01/19 00:30:55;;;;;;;;;;;;;;;16.79;71.89;99838.94;7403543;19;1871;-42
2023/01/19 00:33:23;;;;;;;;;;;;;;;16.84;71.69;99834.06;7403104;19;2069;-42
2023/01/19 00:35:54;;;;;;;;;;;;;;;16.83;71.37;99843.91;7402587;19;1900;-42
2023/01/19 00:38:25;;;;;;;;;;;;;;;16.84;71.43;99844.75;7399693;19;1938;-42
2023/01/19 00:40:53;;;;;;;;;;;;;;;16.81;71.84;99850.31;7402804;19;1935;-42
2023/01/19 00:43:21;;;;;;;;;;;;;;;16.84;71.68;99861.59;7403787;19;1957;-42
2023/01/19 00:45:50;;;;;;;;;;;;;;;16.85;71.59;99852.63;7402610;19;1971;-42
2023/01/19 00:48:18;;;;;;;;;;;;;;;16.80;71.40;99857.50;7402334;19;2307;-42
2023/01/19 00:50:47;;;;;;;;;;;;;;;16.88;71.55;99867.50;7402199;19;2069;-42
2023/01/19 00:53:15;;;;;;;;;;;;;;;16.82;71.95;99876.09;7403245;19;1913;-42
2023/01/19 00:55:46;;;;;;;;;;;;;;;16.87;71.46;99868.47;7401472;19;1102;-42
2023/01/19 00:58:14;;;;;;;;;;;;;;;16.86;71.72;99864.13;7401383;19;1897;-42
2023/01/19 01:00:43;;;;;;;;;;;;;;;16.88;71.23;99863.00;7398559;19;2038;-42
2023/01/19 01:03:12;;;;;;;;;;;;;;;16.85;71.65;99862.44;7403224;19;1747;-42
2023/01/19 01:05:42;;;;;;;;;;;;;;;16.87;71.93;99877.34;7403408;19;1003;-42
2023/01/19 01:08:10;;;;;;;;;;;;;;;16.83;71.73;99862.59;7402412;19;1857;-42
2023/01/19 01:10:38;;;;;;;;;;;;;;;16.77;71.80;99838.25;7401231;19;2073;-42
2023/01/19 01:13:09;;;;;;;;;;;;;;;16.75;72.00;99870.44;7401400;19;2156;-42
2023/01/19 01:15:37;;;;;;;;;;;;;;;16.73;72.34;99858.22;7402381;19;1885;-42
2023/01/19 01:18:06;;;;;;;;;;;;;;;16.72;71.88;99857.38;7400679;19;1930;-42
2023/01/19 01:20:36;;;;;;;;;;;;;;;16.72;71.85;99853.88;7401107;19;1925;-42
2023/01/19 01:23:05;;;;;;;;;;;;;;;16.75;72.17;99861.56;7401634;19;1017;-42
2023/01/19 01:25:36;;;;;;;;;;;;;;;16.75;72.08;99853.56;7401482;19;2019;-41
2023/01/19 01:28:05;;;;;;;;;;;;;;;16.69;72.12;99849.63;7400442;19;2030;-41
2023/01/19 01:30:38;;;;;;;;;;;;;;;16.70;71.87;99838.81;7400217;19;2089;-41
2023/01/19 01:33:07;;;;;;;;;;;;;;;16.68;72.23;99823.94;7401023;19;1978;-42
2023/01/19 01:35:35;;;;;;;;;;;;;;;16.75;72.21;99821.53;7401402;19;1909;-42
2023/01/19 01:38:03;;;;;;;;;;;;;;;16.76;72.14;99832.06;7401240;19;1864;-42
2023/01/19 01:40:31;;;;;;;;;;;;;;;16.72;72.01;99819.16;7400682;19;1729;-42
2023/01/19 01:43:01;;;;;;;;;;;;;;;16.78;71.84;99810.59;7400946;19;2028;-42
2023/01/19 01:45:31;;;;;;;;;;;;;;;16.79;71.72;99825.59;7400673;19;1899;-42
2023/01/19 01:48:04;;;;;;;;;;;;;;;16.75;72.11;99827.75;7401020;19;1946;-42
2023/01/19 01:50:34;;;;;;;;;;;;;;;16.73;71.85;99816.31;7400299;19;1757;-42
2023/01/19 01:53:03;;;;;;;;;;;;;;;16.68;72.04;99808.75;7401661;19;1047;-42
2023/01/19 01:55:32;;;;;;;;;;;;;;;16.75;71.45;99813.53;7399010;19;2063;-42
2023/01/19 01:58:03;;;;;;;;;;;;;;;16.73;71.33;99802.16;7399672;19;2081;-42
2023/01/19 02:02:49;;;;;;;;;;;;;;;16.69;71.81;99794.44;7399727;19;1896;-42
2023/01/19 02:03:22;;;;;;;;;;;;;;;16.70;71.28;99806.78;7399840;19;2012;-42
2023/01/19 02:05:50;;;;;;;;;;;;;;;16.69;71.60;99794.44;7400152;19;2369;-42
2023/01/19 02:13:45;;;;;;;;;;;;;;;16.67;71.77;99811.56;7400927;19;1815;-42
2023/01/19 02:16:14;;;;;;;;;;;;;;;16.64;71.72;99807.38;7400859;19;1910;-42
2023/01/19 02:18:45;;;;;;;;;;;;;;;16.61;71.52;99807.66;7400275;19;1843;-42
2023/01/19 02:21:17;;;;;;;;;;;;;;;16.63;71.73;99820.84;7400615;19;1907;-42
2023/01/19 02:23:50;;;;;;;;;;;;;;;16.63;71.45;99816.38;7397392;19;1930;-42
2023/01/19 02:26:20;;;;;;;;;;;;;;;16.62;71.61;99819.19;7399265;19;2138;-42
2023/01/19 02:28:50;;;;;;;;;;;;;;;16.59;71.71;99820.31;7400634;19;1751;-42
2023/01/19 02:31:19;;;;;;;;;;;;;;;16.70;72.72;99813.97;7398086;19;1639;-42
2023/01/19 02:33:47;;;;;;;;;;;;;;;16.74;72.09;99818.03;7399592;19;1037;-42
2023/01/19 02:36:17;;;;;;;;;;;;;;;16.69;71.90;99813.13;7400286;19;1888;-42
2023/01/19 02:38:46;;;;;;;;;;;;;;;16.60;72.29;99811.31;7395076;19;1987;-42
2023/01/19 02:41:19;;;;;;;;;;;;;;;16.62;72.54;99824.53;7398291;19;1901;-42
2023/01/19 02:43:49;;;;;;;;;;;;;;;16.62;72.00;99833.38;7400122;19;1841;-42
2023/01/19 02:46:18;;;;;;;;;;;;;;;16.62;72.19;99822.69;7399524;19;1889;-42
2023/01/19 02:48:46;;;;;;;;;;;;;;;16.36;72.03;99781.59;7400044;19;1031;-41
2023/01/19 02:51:16;;;;;;;;;;;;;;;16.63;72.35;99823.53;7399844;19;2116;-42
2023/01/19 02:54:02;;;;;;;;;;;;;;;16.65;72.05;99821.53;7396907;19;1918;-42
2023/01/19 02:56:48;;;;;;;;;;;;;;;16.65;71.85;99835.75;7396129;19;1973;-42
2023/01/19 02:59:24;;;;;;;;;;;;;;;16.62;72.06;99822.69;7394499;19;1861;-42
2023/01/19 03:02:02;;;;;;;;;;;;;;;16.57;71.80;99814.25;7400757;19;1808;-41
2023/01/19 03:04:47;;;;;;;;;;;;;;;16.58;72.33;99821.28;7406872;19;1883;-42
2023/01/19 03:07:18;;;;;;;;;;;;;;;16.59;71.76;99814.97;7406820;19;1003;-42
2023/01/19 03:09:51;;;;;;;;;;;;;;;16.62;71.60;99820.00;7403894;19;2144;-42
2023/01/19 03:12:25;;;;;;;;;;;;;;;16.56;71.65;99817.91;7405644;19;1720;-42
2023/01/19 03:15:00;;;;;;;;;;;;;;;16.58;72.20;99834.63;7405651;19;1933;-42
2023/01/19 03:17:29;;;;;;;;;;;;;;;16.62;71.93;99836.03;7404871;19;1861;-42
2023/01/19 03:19:59;;;;;;;;;;;;;;;16.60;71.63;99848.69;7401959;19;1847;-42
2023/01/19 03:22:29;;;;;;;;;;;;;;;16.55;72.01;99842.06;7405305;19;1033;-42
2023/01/19 03:25:01;;;;;;;;;;;;;;;16.52;71.72;99848.56;7405058;19;1750;-42
2023/01/19 03:27:31;;;;;;;;;;;;;;;16.50;71.73;99846.00;7405014;19;1935;-42
2023/01/19 03:30:03;;;;;;;;;;;;;;;16.48;72.03;99852.50;7404829;19;1901;-42
2023/01/19 03:32:34;;;;;;;;;;;;;;;16.52;72.08;99855.72;7405083;19;1950;-42
2023/01/19 03:35:04;;;;;;;;;;;;;;;16.55;71.60;99852.75;7404136;19;1782;-42
2023/01/19 03:37:33;;;;;;;;;;;;;;;16.50;71.91;99839.84;7404573;19;1200;-42
2023/01/19 03:40:02;;;;;;;;;;;;;;;16.54;71.78;99849.25;7401667;19;1911;-42
2023/01/19 03:42:30;;;;;;;;;;;;;;;16.50;71.80;99851.34;7405136;19;1900;-42
2023/01/19 03:45:01;;;;;;;;;;;;;;;16.48;72.12;99849.81;7404151;19;2034;-42
2023/01/19 03:47:33;;;;;;;;;;;;;;;16.46;71.92;99841.13;7404576;19;2234;-42
2023/01/19 03:50:03;;;;;;;;;;;;;;;16.48;71.95;99865.81;7404005;19;2027;-42
2023/01/19 03:52:33;;;;;;;;;;;;;;;16.53;71.77;99874.25;7404582;19;1073;-42
2023/01/19 03:55:01;;;;;;;;;;;;;;;16.54;71.64;99875.94;7402886;19;1900;-42
2023/01/19 03:57:29;;;;;;;;;;;;;;;16.54;72.06;99875.94;7404399;19;1691;-42
2023/01/19 03:59:58;;;;;;;;;;;;;;;16.53;71.94;99858.22;7401717;19;1916;-42
2023/01/19 04:02:26;;;;;;;;;;;;;;;16.59;71.80;99875.50;7403767;19;1916;-42
2023/01/19 04:04:57;;;;;;;;;;;;;;;17.21;70.24;99862.63;7403457;19;1631;-42
2023/01/19 04:07:25;;;;;;;;;;;;;;;18.02;67.57;99868.16;7403868;19;971;-42
2023/01/19 04:09:54;;;;;;;;;;;;;;;18.72;65.71;99858.59;7402862;19;2142;-42
2023/01/19 04:12:22;;;;;;;;;;;;;;;18.91;64.89;99847.72;7403265;19;1764;-42
2023/01/19 04:14:50;;;;;;;;;;;;;;;18.82;65.09;99859.38;7402871;19;1753;-42
2023/01/19 04:17:19;;;;;;;;;;;;;;;18.57;66.01;99867.19;7402943;19;1669;-42
2023/01/19 04:19:48;;;;;;;;;;;;;;;18.04;67.60;99862.66;7400321;19;1845;-42
2023/01/19 04:22:18;;;;;;;;;;;;;;;18.19;67.24;99874.53;7404054;19;1011;-42
2023/01/19 04:24:47;;;;;;;;;;;;;;;18.68;65.85;99885.69;7403444;19;1739;-42
2023/01/19 04:27:15;;;;;;;;;;;;;;;19.17;64.88;99882.53;7402968;19;1885;-42
2023/01/19 04:29:43;;;;;;;;;;;;;;;19.29;64.48;99877.75;7402630;19;1746;-42
2023/01/19 04:32:12;;;;;;;;;;;;;;;19.28;64.42;99882.28;7402580;19;1738;-41
2023/01/19 04:34:40;;;;;;;;;;;;;;;19.22;64.77;99882.09;7403298;19;1775;-42
2023/01/19 04:37:09;;;;;;;;;;;;;;;19.15;64.86;99878.34;7403763;19;1125;-42
2023/01/19 04:39:39;;;;;;;;;;;;;;;19.14;65.01;99900.78;7400630;19;2129;-42
2023/01/19 04:42:08;;;;;;;;;;;;;;;19.13;64.90;99894.59;7402347;19;1958;-42
2023/01/19 04:44:36;;;;;;;;;;;;;;;19.03;65.01;99892.00;7401634;19;1922;-42
2023/01/19 04:47:04;;;;;;;;;;;;;;;19.12;65.29;99903.63;7401206;19;1939;-42
2023/01/19 04:49:32;;;;;;;;;;;;;;;19.04;65.20;99890.19;7402814;19;2029;-42
2023/01/19 04:52:01;;;;;;;;;;;;;;;19.08;65.10;99924.53;7403077;19;1113;-42
2023/01/19 04:54:29;;;;;;;;;;;;;;;19.19;65.24;99934.16;7400470;19;1937;-42
2023/01/19 04:57:00;;;;;;;;;;;;;;;19.30;64.84;99914.31;7400332;19;1880;-42
2023/01/19 04:59:28;;;;;;;;;;;;;;;19.25;64.89;99921.97;7398914;19;1857;-42
2023/01/19 05:01:57;;;;;;;;;;;;;;;19.24;64.90;99918.44;7400467;19;2043;-42
2023/01/19 05:04:26;;;;;;;;;;;;;;;19.19;65.25;99915.38;7401253;19;1941;-42
2023/01/19 05:06:54;;;;;;;;;;;;;;;19.26;64.78;99920.97;7401190;19;1580;-42
2023/01/19 05:09:23;;;;;;;;;;;;;;;19.29;64.80;99917.97;7400087;19;1913;-42
2023/01/19 05:11:51;;;;;;;;;;;;;;;19.29;64.59;99912.59;7399515;19;1617;-42
2023/01/19 05:14:22;;;;;;;;;;;;;;;19.24;65.06;99901.53;7401388;19;2055;-42
2023/01/19 05:16:50;;;;;;;;;;;;;;;19.35;65.12;99898.56;7401055;19;1563;-42
2023/01/19 05:19:20;;;;;;;;;;;;;;;19.39;64.97;99921.38;7401000;19;1854;-41
2023/01/19 05:21:48;;;;;;;;;;;;;;;19.39;65.14;99933.94;7402564;19;991;-42
2023/01/19 05:24:17;;;;;;;;;;;;;;;19.48;64.66;99930.31;7399060;19;1919;-42
2023/01/19 05:26:45;;;;;;;;;;;;;;;19.43;64.87;99928.09;7400219;19;1924;-42
2023/01/19 05:29:14;;;;;;;;;;;;;;;19.44;65.16;99928.97;7401460;19;1607;-42
2023/01/19 05:31:44;;;;;;;;;;;;;;;19.52;65.45;99939.72;7401406;19;1868;-42
2023/01/19 05:34:13;;;;;;;;;;;;;;;19.56;65.66;99940.25;7400946;19;2002;-42
2023/01/19 05:36:41;;;;;;;;;;;;;;;19.68;65.59;99939.81;7402100;19;1192;-42
2023/01/19 05:39:09;;;;;;;;;;;;;;;19.67;65.58;99942.66;7398562;19;1854;-42
2023/01/19 05:41:38;;;;;;;;;;;;;;;19.63;65.54;99962.75;7400051;19;1808;-42
2023/01/19 05:44:06;;;;;;;;;;;;;;;19.63;65.33;99954.69;7398471;19;1907;-41
2023/01/19 05:46:35;;;;;;;;;;;;;;;19.55;65.83;99968.06;7400192;19;2359;-41
2023/01/19 05:49:06;;;;;;;;;;;;;;;19.48;65.44;99968.69;7400631;19;1887;-41
2023/01/19 05:51:37;;;;;;;;;;;;;;;19.45;65.35;99969.00;7398693;19;951;-41
2023/01/19 05:54:05;;;;;;;;;;;;;;;19.54;65.20;99971.75;7398675;19;1902;-41
2023/01/19 05:56:34;;;;;;;;;;;;;;;19.58;65.31;99973.13;7400879;19;1886;-41
2023/01/19 05:59:02;;;;;;;;;;;;;;;19.60;65.17;99976.50;7399675;19;1830;-42
2023/01/19 06:01:32;;;;;;;;;;;;;;;19.58;65.40;99984.69;7399935;19;1581;-41
2023/01/19 06:04:00;;;;;;;;;;;;;;;19.55;65.06;99978.78;7398623;19;1510;-41
2023/01/19 06:06:31;;;;;;;;;;;;;;;19.07;65.56;100008.59;7397622;19;1870;-41
2023/01/19 06:08:59;;;;;;;;;;;;;;;18.17;64.28;99988.06;7399372;19;1944;-41
2023/01/19 06:11:27;;;;;;;;;;;;;;;17.58;63.71;99977.56;7398611;19;1940;-41
2023/01/19 06:13:56;;;;;;;;;;;;;;;17.46;62.79;99990.25;7398431;19;1709;-41
2023/01/19 06:16:24;;;;;;;;;;;;;;;17.51;62.12;99987.19;7396578;19;1708;-41
2023/01/19 06:18:52;;;;;;;;;;;;;;;17.51;63.13;100000.53;7396782;19;1854;-41
2023/01/19 06:21:20;;;;;;;;;;;;;;;17.37;62.49;99991.13;7394782;19;2145;-41
2023/01/19 06:23:51;;;;;;;;;;;;;;;17.43;62.42;100008.44;7394700;19;1502;-41
2023/01/19 06:26:20;;;;;;;;;;;;;;;17.40;62.12;100001.53;7392639;19;1641;-41
2023/01/19 06:28:48;;;;;;;;;;;;;;;17.37;63.14;100007.19;7398338;19;1999;-41
2023/01/19 06:31:17;;;;;;;;;;;;;;;17.33;63.62;100016.47;7400085;19;1924;-41
2023/01/19 06:33:45;;;;;;;;;;;;;;;17.26;62.64;100018.84;7400859;19;1035;-41
2023/01/19 06:36:13;;;;;;;;;;;;;;;17.27;61.19;100017.03;7397249;19;2010;-42
2023/01/19 06:38:41;;;;;;;;;;;;;;;17.27;61.16;100035.75;7402373;19;2025;-41
2023/01/19 06:41:12;;;;;;;;;;;;;;;17.20;62.62;100015.91;7406703;19;1651;-41
2023/01/19 06:43:41;;;;;;;;;;;;;;;17.17;62.29;100029.53;7408031;19;1754;-41
2023/01/19 06:46:09;;;;;;;;;;;;;;;17.12;61.63;100023.78;7407930;19;1046;-41
2023/01/19 06:48:37;;;;;;;;;;;;;;;17.14;61.81;100021.81;7407355;19;2093;-41
2023/01/19 06:51:06;;;;;;;;;;;;;;;17.16;62.09;100020.69;7406837;19;2104;-41
2023/01/19 06:53:34;;;;;;;;;;;;;;;17.17;62.58;100016.19;7404466;19;1892;-41
2023/01/19 06:56:03;;;;;;;;;;;;;;;17.12;63.11;100013.09;7406492;19;1893;-41
2023/01/19 06:58:34;;;;;;;;;;;;;;;17.12;62.86;100007.78;7407734;19;1022;-41
2023/01/19 07:01:03;;;;;;;;;;;;;;;17.09;63.36;100012.41;7400846;19;2106;-41
2023/01/19 07:03:32;;;;;;;;;;;;;;;17.07;62.75;100018.88;7406640;19;1919;-41
2023/01/19 07:06:01;;;;;;;;;;;;;;;17.07;62.70;100017.06;7406642;19;1890;-41
2023/01/19 07:08:29;;;;;;;;;;;;;;;17.01;63.32;100012.28;7407642;19;1037;-41
2023/01/19 07:11:00;;;;;;;;;;;;;;;17.05;63.35;100015.47;7407051;19;963;-41
2023/01/19 07:13:29;;;;;;;;;;;;;;;17.05;63.49;100037.72;7406438;19;1875;-41
2023/01/19 07:15:59;;;;;;;;;;;;;;;17.00;63.21;100012.41;7406412;19;2034;-41
2023/01/19 07:18:28;;;;;;;;;;;;;;;17.08;63.55;100020.56;7405994;19;2024;-41
2023/01/19 07:20:58;;;;;;;;;;;;;;;17.02;63.63;100008.59;7403864;19;2015;-41
2023/01/19 07:23:29;;;;;;;;;;;;;;;17.06;62.68;100006.50;7405358;19;1912;-41
2023/01/19 07:25:57;;;;;;;;;;;;;;;17.01;62.94;100030.97;7406068;19;1898;-41
2023/01/19 07:28:25;;;;;;;;;;;;;;;17.02;63.12;100034.47;7407212;19;942;-41
2023/01/19 07:30:54;;;;;;;;;;;;;;;17.00;62.71;100023.09;7406000;19;1905;-41
2023/01/19 07:33:26;;;;;;;;;;;;;;;17.02;62.88;100021.97;7405410;19;2223;-41
2023/01/19 07:35:54;;;;;;;;;;;;;;;17.04;62.69;100011.97;7405594;19;2045;-41
2023/01/19 07:38:23;;;;;;;;;;;;;;;17.07;62.29;100011.72;7405560;19;1771;-41
2023/01/19 07:40:51;;;;;;;;;;;;;;;17.13;61.74;100014.78;7403905;19;1860;-41
2023/01/19 07:43:19;;;;;;;;;;;;;;;17.15;62.04;100021.69;7405939;19;1022;-41
2023/01/19 07:45:48;;;;;;;;;;;;;;;17.14;61.75;100022.66;7405588;19;1781;-41
2023/01/19 07:48:16;;;;;;;;;;;;;;;17.18;61.43;100015.22;7403844;19;2087;-41
2023/01/19 07:50:47;;;;;;;;;;;;;;;17.25;61.16;100001.16;7405332;19;1732;-41
2023/01/19 07:53:15;;;;;;;;;;;;;;;17.27;61.54;100001.00;7405678;19;1966;-41
2023/01/19 07:55:44;;;;;;;;;;;;;;;17.29;59.83;100005.22;7403193;19;1097;-41
2023/01/19 07:58:12;;;;;;;;;;;;;;;17.28;59.66;100000.00;7402103;19;2026;-41
2023/01/19 08:00:40;;;;;;;;;;;;;;;17.29;58.48;100001.72;7402474;19;1899;-41
2023/01/19 08:03:09;;;;;;;;;;;;;;;17.33;60.17;99992.41;7404834;19;1812;-41
2023/01/19 08:05:37;;;;;;;;;;;;;;;17.32;58.62;99998.72;7405344;19;1019;-41
2023/01/19 08:08:08;;;;;;;;;;;;;;;17.27;57.05;99979.63;7404716;19;1998;-41
2023/01/19 08:10:36;;;;;;;;;;;;;;;17.30;57.42;99992.69;7404403;19;2080;-41
2023/01/19 08:13:04;;;;;;;;;;;;;;;17.29;57.01;100015.06;7403930;19;2021;-41
2023/01/19 08:15:33;;;;;;;;;;;;;;;17.27;56.32;99995.66;7404446;19;1787;-41
2023/01/19 08:18:04;;;;;;;;;;;;;;;17.33;56.49;100003.09;7402994;19;2020;-41
2023/01/19 08:20:32;;;;;;;;;;;;;;;17.35;55.47;100006.47;7402878;19;1842;-41
2023/01/19 08:23:01;;;;;;;;;;;;;;;17.35;57.45;100009.16;7403415;19;1176;-41
2023/01/19 08:25:36;;;;;;;;;;;;;;;17.38;57.71;100014.19;7403976;19;1844;-41
2023/01/19 08:28:05;;;;;;;;;;;;;;;17.38;57.94;100014.19;7404103;19;2025;-41
2023/01/19 08:30:33;;;;;;;;;;;;;;;17.40;58.01;100022.91;7402348;19;1883;-41
2023/01/19 08:33:06;;;;;;;;;;;;;;;17.44;58.42;100039.50;7402511;19;1923;-42
2023/01/19 08:35:36;;;;;;;;;;;;;;;17.48;58.42;100024.88;7393956;19;1899;-42
2023/01/19 08:38:05;;;;;;;;;;;;;;;17.48;58.67;100038.22;7402890;19;1353;-42
2023/01/19 08:40:37;;;;;;;;;;;;;;;17.55;59.25;100035.81;7400154;19;2073;-42
2023/01/19 08:43:06;;;;;;;;;;;;;;;17.49;59.72;100026.56;7402493;19;1927;-42
2023/01/19 08:45:35;;;;;;;;;;;;;;;17.55;59.86;100017.09;7401354;19;1781;-42
2023/01/19 08:48:03;;;;;;;;;;;;;;;17.54;59.64;100021.63;7401847;19;1726;-42
2023/01/19 08:50:33;;;;;;;;;;;;;;;17.56;60.05;100024.16;7400924;19;1682;-42
2023/01/19 08:53:03;;;;;;;;;;;;;;;17.59;59.75;100030.06;7402215;19;1047;-42
2023/01/19 08:55:31;;;;;;;;;;;;;;;17.59;60.58;100021.22;7400380;19;2074;-42
2023/01/19 08:58:03;;;;;;;;;;;;;;;17.58;60.66;100008.81;7401309;19;1861;-42
2023/01/19 09:00:32;;;;;;;;;;;;;;;17.63;60.97;100001.22;7398955;19;1995;-42
2023/01/19 09:03:02;;;;;;;;;;;;;;;17.60;61.32;100023.72;7402304;19;1756;-42
2023/01/19 09:05:30;;;;;;;;;;;;;;;17.64;60.63;100021.59;7401741;19;1915;-42
2023/01/19 09:07:59;;;;;;;;;;;;;;;17.67;60.68;100000.78;7400114;19;1019;-42
2023/01/19 09:10:30;;;;;;;;;;;;;;;17.66;60.39;100007.09;7400359;19;2014;-42
2023/01/19 09:12:58;;;;;;;;;;;;;;;17.65;60.55;99983.19;7400924;19;1779;-42
2023/01/19 09:15:29;;;;;;;;;;;;;;;17.70;60.64;99994.28;7399997;19;2322;-42
2023/01/19 09:17:57;;;;;;;;;;;;;;;17.68;61.18;100010.47;7401667;19;1923;-42
2023/01/19 09:20:26;;;;;;;;;;;;;;;17.72;59.98;99984.28;7399590;19;2234;-42
2023/01/19 09:22:54;;;;;;;;;;;;;;;17.70;60.68;100011.16;7400469;19;931;-42
2023/01/19 09:25:22;;;;;;;;;;;;;;;17.73;61.16;100004.69;7399941;19;2085;-42
2023/01/19 09:27:50;;;;;;;;;;;;;;;17.71;61.43;99993.31;7399477;19;1616;-42
2023/01/19 09:30:20;;;;;;;;;;;;;;;17.73;61.24;100002.03;7400279;19;1787;-42
2023/01/19 09:32:51;;;;;;;;;;;;;;;17.70;61.40;100005.81;7400471;19;1970;-42
2023/01/19 09:35:20;;;;;;;;;;;;;;;17.72;61.47;100000.31;7399785;19;1909;-42
2023/01/19 09:37:48;;;;;;;;;;;;;;;17.73;60.96;100004.69;7400581;19;1526;-42
2023/01/19 09:40:19;;;;;;;;;;;;;;;17.72;61.50;99997.66;7400055;19;1887;-42
2023/01/19 09:42:52;;;;;;;;;;;;;;;17.73;61.42;99996.66;7399259;19;1752;-42
2023/01/19 09:45:31;;;;;;;;;;;;;;;17.76;59.35;99980.31;7397229;19;1707;-42
2023/01/19 09:48:02;;;;;;;;;;;;;;;17.82;56.68;99969.03;7399356;19;1743;-42
2023/01/19 09:50:34;;;;;;;;;;;;;;;17.82;57.14;100000.28;7400134;19;1742;-42
2023/01/19 09:53:06;;;;;;;;;;;;;;;17.77;58.21;99998.06;7399805;19;1423;-42
2023/01/19 09:55:34;;;;;;;;;;;;;;;17.76;58.33;99969.63;7397071;19;2073;-42
2023/01/19 09:58:02;;;;;;;;;;;;;;;17.72;58.93;99962.06;7398578;19;1782;-42
2023/01/19 10:00:31;;;;;;;;;;;;;;;17.73;59.03;99975.28;7398428;19;1853;-42
2023/01/19 10:03:16;;;;;;;;;;;;;;;17.74;58.86;99982.28;7399590;19;1723;-42
2023/01/19 10:05:48;;;;;;;;;;;;;;;17.77;59.12;99986.53;7398903;19;1766;-40
2023/01/19 10:08:20;;;;;;;;;;;;;;;17.78;59.88;99978.34;7398902;19;1852;-42
2023/01/19 10:10:53;;;;;;;;;;;;;;;17.78;59.85;99967.63;7401437;19;1363;-42
2023/01/19 10:13:31;;;;;;;;;;;;;;;17.81;59.38;99955.84;7406647;19;2063;-42
2023/01/19 10:16:03;;;;;;;;;;;;;;;17.84;59.58;99959.06;7404467;19;1816;-42
2023/01/19 10:18:44;;;;;;;;;;;;;;;17.86;59.95;99959.75;7406526;19;1872;-42
2023/01/19 10:21:16;;;;;;;;;;;;;;;17.86;59.14;99958.91;7404191;19;1857;-42
2023/01/19 10:23:46;;;;;;;;;;;;;;;17.86;60.17;99954.41;7406468;19;1964;-42
2023/01/19 10:26:17;;;;;;;;;;;;;;;17.83;59.91;99949.38;7405749;19;1884;-42
2023/01/19 10:28:47;;;;;;;;;;;;;;;17.91;59.21;99985.25;7404597;19;1761;-42
2023/01/19 10:31:15;;;;;;;;;;;;;;;17.85;59.66;99944.72;7403424;19;1719;-42
2023/01/19 10:33:46;;;;;;;;;;;;;;;17.98;59.34;99946.19;7406028;19;1669;-42
2023/01/19 10:36:18;;;;;;;;;;;;;;;17.96;59.57;99949.00;7406454;19;2071;-42
2023/01/19 10:38:46;;;;;;;;;;;;;;;18.03;60.11;99951.97;7405578;19;1532;-42
2023/01/19 10:41:18;;;;;;;;;;;;;;;18.06;60.84;99959.66;7403528;19;1867;-42
2023/01/19 10:43:47;;;;;;;;;;;;;;;18.04;60.81;99940.25;7405990;19;1677;-42
2023/01/19 10:46:22;;;;;;;;;;;;;;;18.06;61.03;99938.25;7403687;19;1850;-42
2023/01/19 10:48:54;;;;;;;;;;;;;;;18.06;60.85;99943.63;7403488;19;1617;-42
2023/01/19 10:51:23;;;;;;;;;;;;;;;18.08;60.97;99933.59;7407063;19;1888;-42
2023/01/19 10:53:56;;;;;;;;;;;;;;;18.07;61.29;99964.03;7403280;19;1977;-42
2023/01/19 10:56:27;;;;;;;;;;;;;;;17.98;59.42;99935.50;7404441;19;1808;-42
2023/01/19 10:58:55;;;;;;;;;;;;;;;18.02;60.48;99947.59;7403684;19;1978;-41
2023/01/19 11:01:24;;;;;;;;;;;;;;;18.09;60.23;99933.47;7400816;19;1865;-41
2023/01/19 11:03:58;;;;;;;;;;;;;;;18.04;60.57;99933.06;7403804;19;2126;-42
2023/01/19 11:06:29;;;;;;;;;;;;;;;18.02;60.31;99940.38;7405295;19;1685;-42
2023/01/19 11:09:11;;;;;;;;;;;;;;;18.07;60.75;99918.56;7402996;19;1861;-41
2023/01/19 11:11:47;;;;;;;;;;;;;;;18.10;61.02;99926.25;7404600;19;1707;-41
2023/01/19 11:14:16;;;;;;;;;;;;;;;18.04;60.86;99922.34;7402868;19;1928;-41
2023/01/19 11:16:47;;;;;;;;;;;;;;;18.04;60.64;99919.69;7402502;19;1719;-42
2023/01/19 11:19:23;;;;;;;;;;;;;;;18.05;60.23;99924.06;7404760;19;2013;-42
2023/01/19 11:21:51;;;;;;;;;;;;;;;18.05;60.62;99925.91;7402924;19;1863;-41
2023/01/19 11:24:20;;;;;;;;;;;;;;;18.06;59.56;99932.91;7403486;19;1889;-41
2023/01/19 11:26:50;;;;;;;;;;;;;;;18.04;59.96;99917.00;7405470;19;1382;-41
2023/01/19 11:29:20;;;;;;;;;;;;;;;18.04;59.86;99929.53;7405250;19;1640;-42
2023/01/19 11:31:50;;;;;;;;;;;;;;;18.09;59.67;99936.13;7404170;19;2058;-41
2023/01/19 11:34:31;;;;;;;;;;;;;;;18.05;58.84;99933.91;7403200;19;1526;-42
2023/01/19 11:37:01;;;;;;;;;;;;;;;18.04;59.82;99913.50;7401749;19;1917;-42
2023/01/19 11:39:30;;;;;;;;;;;;;;;18.01;59.74;99905.78;7402589;19;1726;-42
2023/01/19 11:42:00;;;;;;;;;;;;;;;18.00;60.09;99923.66;7402050;19;1911;-42
2023/01/19 11:44:31;;;;;;;;;;;;;;;17.98;60.20;99914.09;7404362;19;1637;-42
2023/01/19 11:47:00;;;;;;;;;;;;;;;17.99;60.41;99924.66;7404119;19;2023;-42
2023/01/19 11:49:40;;;;;;;;;;;;;;;18.03;60.16;99920.69;7403047;19;2522;-42
2023/01/19 11:52:15;;;;;;;;;;;;;;;18.04;60.51;99932.22;7402954;19;1707;-42
2023/01/19 11:54:47;;;;;;;;;;;;;;;17.96;60.78;99934.81;7401087;19;1720;-42
2023/01/19 11:57:18;;;;;;;;;;;;;;;17.88;60.90;99930.19;7402652;19;1752;-42
2023/01/19 11:59:47;;;;;;;;;;;;;;;17.81;58.34;99929.91;7401938;19;1555;-41
2023/01/19 12:02:19;;;;;;;;;;;;;;;17.88;59.43;99920.31;7402174;19;1870;-41
2023/01/19 12:04:51;;;;;;;;;;;;;;;17.97;59.32;99912.44;7403652;19;1559;-41
2023/01/19 12:07:23;;;;;;;;;;;;;;;17.89;59.78;99908.66;7403311;19;1540;-42
2023/01/19 12:09:55;;;;;;;;;;;;;;;17.89;60.23;99918.53;7400677;19;1858;-42
2023/01/19 12:12:28;;;;;;;;;;;;;;;17.84;60.67;99912.75;7400466;19;1756;-42
2023/01/19 12:14:59;;;;;;;;;;;;;;;17.78;60.98;99907.97;7401104;19;1014;-42
2023/01/19 12:17:28;;;;;;;;;;;;;;;17.73;61.27;99896.91;7402565;19;1925;-42
2023/01/19 12:20:03;;;;;;;;;;;;;;;17.73;61.04;99908.44;7399473;19;2032;-42
2023/01/19 12:22:37;;;;;;;;;;;;;;;17.70;61.41;99912.22;7397530;19;1841;-41
2023/01/19 12:25:08;;;;;;;;;;;;;;;17.69;60.55;99904.38;7401933;19;1463;-41
2023/01/19 12:27:40;;;;;;;;;;;;;;;17.70;61.26;99916.72;7401460;19;1850;-42
2023/01/19 12:30:17;;;;;;;;;;;;;;;17.72;61.11;99903.22;7402230;19;1749;-42
2023/01/19 12:32:45;;;;;;;;;;;;;;;17.78;59.81;99899.94;7399442;19;2054;-41
2023/01/19 12:35:28;;;;;;;;;;;;;;;17.73;55.76;99897.72;7398047;19;1895;-42
2023/01/19 12:37:59;;;;;;;;;;;;;;;17.74;54.58;99894.06;7401622;19;1684;-42
2023/01/19 12:40:30;;;;;;;;;;;;;;;17.76;55.77;99888.56;7402767;19;1572;-42
2023/01/19 12:43:02;;;;;;;;;;;;;;;17.70;52.90;99893.50;7399654;19;2152;-42
2023/01/19 12:45:32;;;;;;;;;;;;;;;17.68;54.13;99897.31;7401405;19;2027;-42
2023/01/19 12:48:01;;;;;;;;;;;;;;;17.65;53.01;99886.94;7401533;19;1940;-42
2023/01/19 12:50:31;;;;;;;;;;;;;;;17.69;52.37;99899.03;7401274;19;1937;-42
2023/01/19 12:53:06;;;;;;;;;;;;;;;17.66;53.63;99888.63;7402204;19;1642;-42
2023/01/19 12:55:35;;;;;;;;;;;;;;;17.65;53.96;99919.84;7400978;19;1965;-42
2023/01/19 12:58:04;;;;;;;;;;;;;;;17.63;52.45;99902.28;7401802;19;1971;-42
2023/01/19 13:00:34;;;;;;;;;;;;;;;17.68;51.25;99902.66;7398154;19;1778;-42
2023/01/19 13:03:04;;;;;;;;;;;;;;;17.68;51.52;99913.38;7400850;19;1841;-42
2023/01/19 13:06:00;;;;;;;;;;;;;;;17.63;50.94;99910.31;7360376;19;13438;-42
2023/01/19 13:08:51;;;;;;;;;;;;;;;17.60;52.91;99900.72;7402421;19;1466;-42
2023/01/19 13:11:21;;;;;;;;;;;;;;;17.62;52.59;99909.44;7400647;19;1756;-42
2023/01/19 13:14:04;;;;;;;;;;;;;;;17.59;52.92;99924.97;7401724;19;1137;-42
2023/01/19 13:17:02;;;;;;;;;;;;;;;17.54;51.83;99912.00;7401854;19;1957;-42